Time;durP1;ratioP1;P1;durP2;ratioP2;P2;SDS_P1;SDS_P2;PMS_P1;PMS_P2;Temp;Humidity;BMP_temperature;BMP_pressure;BME280_temperature;BME280_humidity;BME280_pressure;Samples;Min_cycle;Max_cycle;Signal;HPM_P1;HPM_P2
2023/04/12 00:00:12;;;;;;;66.82;61.28;;;9.50;99.90;;;;;;4983332;28;20760;-83
2023/04/12 00:02:38;;;;;;;77.28;71.18;;;9.50;99.90;;;;;;4995587;28;20042;-83
2023/04/12 00:05:04;;;;;;;73.18;66.13;;;9.50;99.90;;;;;;4993444;28;20041;-83
2023/04/12 00:07:31;;;;;;;58.90;54.33;;;9.60;99.90;;;;;;4995173;28;20051;-83
2023/04/12 00:09:56;;;;;;;58.25;45.83;;;11.50;99.90;;;;;;5010833;28;20121;-84
2023/04/12 00:12:22;;;;;;;49.38;44.55;;;10.80;99.90;;;;;;5010381;28;20137;-83
2023/04/12 00:14:47;;;;;;;74.70;68.10;;;9.80;99.90;;;;;;4995080;28;20045;-83
2023/04/12 00:17:13;;;;;;;47.70;43.13;;;9.70;99.90;;;;;;4989003;28;20132;-83
2023/04/12 00:19:41;;;;;;;33.40;30.23;;;9.80;99.90;;;;;;4987496;28;20041;-84
2023/04/12 00:22:08;;;;;;;41.83;38.10;;;9.70;99.90;;;;;;5006703;28;20042;-84
2023/04/12 00:24:34;;;;;;;49.33;44.55;;;9.70;99.90;;;;;;5010159;28;20461;-83
2023/04/12 00:27:00;;;;;;;76.15;68.28;;;10.10;99.90;;;;;;4992895;28;20034;-84
2023/04/12 00:29:26;;;;;;;66.43;57.30;;;10.20;99.90;;;;;;4994493;28;20128;-83
2023/04/12 00:31:52;;;;;;;102.65;82.35;;;11.10;99.90;;;;;;4994441;28;20141;-83
2023/04/12 00:34:18;;;;;;;64.47;57.97;;;10.00;99.90;;;;;;4997027;28;20038;-83
2023/04/12 00:36:43;;;;;;;66.38;58.03;;;10.00;99.90;;;;;;5006989;28;20128;-84
2023/04/12 00:39:09;;;;;;;50.90;45.25;;;10.00;99.90;;;;;;4994113;28;20064;-83
2023/04/12 00:41:38;;;;;;;59.72;53.58;;;10.20;99.90;;;;;;5010496;28;20048;-83
2023/04/12 00:44:03;;;;;;;71.65;63.55;;;10.00;99.90;;;;;;5009569;28;20084;-83
2023/04/12 00:46:29;;;;;;;90.28;65.85;;;9.90;99.90;;;;;;4979690;28;20046;-90
2023/04/12 00:48:56;;;;;;;61.17;54.60;;;10.20;99.90;;;;;;4991174;28;20084;-91
2023/04/12 00:51:24;;;;;;;54.38;48.70;;;10.80;99.90;;;;;;5007932;28;20088;-90
2023/04/12 00:53:56;;;;;;;63.97;48.42;;;11.80;99.90;;;;;;4981581;28;20745;-90
2023/04/12 00:56:23;;;;;;;70.78;54.40;;;10.20;99.90;;;;;;4974645;28;20081;-90
2023/04/12 00:58:48;;;;;;;78.57;69.75;;;11.50;99.90;;;;;;4990977;28;20050;-90
2023/04/12 01:01:15;;;;;;;57.28;48.10;;;9.60;99.90;;;;;;4974061;28;20449;-90
2023/04/12 01:03:42;;;;;;;51.13;45.45;;;9.90;99.90;;;;;;4985806;28;20499;-91
2023/04/12 01:06:28;;;;;;;54.65;49.60;;;12.20;99.90;;;;;;4978482;28;20069;-89
2023/04/12 01:09:03;;;;;;;45.03;40.35;;;11.40;99.90;;;;;;4994149;28;20092;-90
2023/04/12 01:11:36;;;;;;;73.05;64.53;;;11.50;99.90;;;;;;4993878;28;20046;-91
2023/04/12 01:14:02;;;;;;;67.93;60.45;;;11.70;99.90;;;;;;4992326;28;20034;-89
2023/04/12 01:16:43;;;;;;;80.15;66.15;;;9.70;99.90;;;;;;4987503;28;20042;-90
2023/04/12 01:19:52;;;;;;;98.97;72.65;;;10.80;99.90;;;;;;4998233;28;20042;-89
2023/04/12 01:22:52;;;;;;;78.60;67.88;;;9.80;99.90;;;;;;4992293;28;20073;-90
2023/04/12 01:25:38;;;;;;;47.35;39.17;;;9.70;99.90;;;;;;4993503;28;20042;-89
2023/04/12 01:28:05;;;;;;;60.40;48.97;;;9.60;99.90;;;;;;4992061;28;20038;-89
2023/04/12 01:30:32;;;;;;;63.85;57.33;;;10.00;99.90;;;;;;4992575;28;20187;-89
2023/04/12 01:33:05;;;;;;;68.00;58.22;;;9.70;99.90;;;;;;4986063;28;20049;-89
2023/04/12 01:35:31;;;;;;;62.58;55.90;;;12.00;99.90;;;;;;4990245;28;20042;-89
2023/04/12 01:37:58;;;;;;;71.18;52.60;;;11.50;99.90;;;;;;4989924;28;20153;-89
2023/04/12 01:40:28;;;;;;;69.88;59.58;;;9.80;99.90;;;;;;4974661;28;20418;-89
2023/04/12 01:43:11;;;;;;;70.55;59.28;;;9.60;99.90;;;;;;4998880;28;20041;-89
2023/04/12 01:45:37;;;;;;;42.05;38.08;;;11.50;99.90;;;;;;5009392;28;20494;-90
2023/04/12 01:48:08;;;;;;;56.35;49.70;;;10.90;99.90;;;;;;4992111;28;20044;-90
2023/04/12 01:50:49;;;;;;;50.10;44.67;;;9.90;99.90;;;;;;4992582;28;20128;-90
2023/04/12 01:53:21;;;;;;;45.88;41.50;;;10.00;99.90;;;;;;4984908;28;20065;-89
2023/04/12 01:55:49;;;;;;;62.35;54.47;;;9.40;99.90;;;;;;4984792;28;20502;-89
2023/04/12 01:58:20;;;;;;;87.00;68.97;;;11.70;99.90;;;;;;4995937;28;20046;-89
2023/04/12 02:00:48;;;;;;;42.60;35.47;;;11.70;99.90;;;;;;4992620;28;20533;-89
2023/04/12 02:03:15;;;;;;;53.92;45.58;;;9.30;99.90;;;;;;4976099;28;20050;-89
2023/04/12 02:05:41;;;;;;;30.75;27.77;;;9.40;99.90;;;;;;5005480;28;20424;-90
2023/04/12 02:08:07;;;;;;;47.50;42.88;;;10.80;99.90;;;;;;5009095;28;20049;-89
2023/04/12 02:10:35;;;;;;;36.85;33.35;;;10.80;99.90;;;;;;4998663;28;20498;-90
2023/04/12 02:13:02;;;;;;;31.30;28.27;;;10.10;99.90;;;;;;4989386;28;20050;-89
2023/04/12 02:15:28;;;;;;;62.70;54.42;;;9.50;99.90;;;;;;4972741;28;20050;-89
2023/04/12 02:17:54;;;;;;;48.88;43.03;;;9.40;99.90;;;;;;4978559;28;20041;-89
2023/04/12 02:20:21;;;;;;;56.65;50.55;;;11.30;99.90;;;;;;4974950;28;20053;-89
2023/04/12 02:22:47;;;;;;;49.33;44.33;;;11.60;99.90;;;;;;4978257;28;20041;-90
2023/04/12 02:25:12;;;;;;;70.90;52.90;;;11.40;99.90;;;;;;4992044;28;20045;-89
2023/04/12 02:27:38;;;;;;;41.55;35.55;;;11.30;99.90;;;;;;5001059;28;20042;-89
2023/04/12 02:30:04;;;;;;;27.70;23.58;;;11.30;99.90;;;;;;4989664;28;20034;-90
2023/04/12 02:32:30;;;;;;;39.20;35.00;;;10.00;99.90;;;;;;4987422;28;20500;-89
2023/04/12 02:34:56;;;;;;;51.85;46.53;;;12.10;99.90;;;;;;5010106;28;20042;-90
2023/04/12 02:37:23;;;;;;;60.17;53.88;;;10.90;99.90;;;;;;4990404;28;20033;-90
2023/04/12 02:39:49;;;;;;;63.70;47.38;;;10.10;99.90;;;;;;4997662;28;20057;-89
2023/04/12 02:42:16;;;;;;;83.68;69.18;;;9.50;99.90;;;;;;4992165;28;20077;-89
2023/04/12 02:44:46;;;;;;;67.85;55.85;;;11.50;99.90;;;;;;5009096;28;20552;-89
2023/04/12 02:47:12;;;;;;;56.38;50.45;;;9.70;99.90;;;;;;5008491;28;20052;-89
2023/04/12 02:49:37;;;;;;;38.63;34.72;;;10.00;99.90;;;;;;5006786;28;20117;-89
2023/04/12 02:52:03;;;;;;;45.08;38.10;;;9.20;99.90;;;;;;5004698;28;20038;-90
2023/04/12 02:54:29;;;;;;;50.72;45.50;;;9.80;99.90;;;;;;4991100;28;20073;-90
2023/04/12 02:56:55;;;;;;;97.80;78.28;;;10.10;99.90;;;;;;4988999;28;20402;-90
2023/04/12 02:59:20;;;;;;;65.82;59.47;;;10.00;99.90;;;;;;4989465;28;20484;-90
2023/04/12 03:01:46;;;;;;;45.55;40.47;;;11.50;99.90;;;;;;5008697;28;20513;-90
2023/04/12 03:04:11;;;;;;;39.63;35.72;;;11.20;99.90;;;;;;4991240;28;20061;-90
2023/04/12 03:06:51;;;;;;;69.85;61.05;;;10.10;99.90;;;;;;4990033;28;20080;-89
2023/04/12 03:09:17;;;;;;;47.40;42.92;;;9.60;99.90;;;;;;5008862;28;20537;-90
2023/04/12 03:11:45;;;;;;;58.67;42.25;;;10.10;99.90;;;;;;5009043;28;20037;-90
2023/04/12 03:14:10;;;;;;;56.65;50.92;;;9.30;99.90;;;;;;5007959;28;20069;-90
2023/04/12 03:16:36;;;;;;;68.93;59.17;;;10.50;99.90;;;;;;5008463;28;20077;-90
2023/04/12 03:19:02;;;;;;;76.32;59.00;;;11.70;99.90;;;;;;4988776;28;20064;-90
2023/04/12 03:21:28;;;;;;;84.43;64.10;;;9.60;99.90;;;;;;4987587;28;20061;-84
2023/04/12 03:23:54;;;;;;;53.08;47.35;;;10.10;99.90;;;;;;4994180;28;20064;-83
2023/04/12 03:26:19;;;;;;;45.72;40.22;;;9.40;99.90;;;;;;5002832;28;20030;-84
2023/04/12 03:28:46;;;;;;;104.85;82.68;;;9.60;99.90;;;;;;4992130;28;20084;-84
2023/04/12 03:31:12;;;;;;;56.90;45.70;;;9.40;99.90;;;;;;5011651;28;20409;-83
2023/04/12 03:33:38;;;;;;;53.80;47.92;;;9.70;99.90;;;;;;5011099;28;20041;-83
2023/04/12 03:36:04;;;;;;;58.42;52.85;;;9.80;99.90;;;;;;5002831;28;20529;-83
2023/04/12 03:38:30;;;;;;;39.13;35.63;;;9.50;99.90;;;;;;4989271;28;20054;-84
2023/04/12 03:40:56;;;;;;;68.22;60.90;;;10.10;99.90;;;;;;5011703;28;20049;-83
2023/04/12 03:43:21;;;;;;;43.22;37.83;;;9.70;99.90;;;;;;5011135;28;20081;-83
2023/04/12 03:45:47;;;;;;;63.20;49.60;;;10.10;99.90;;;;;;5011362;28;20042;-84
2023/04/12 03:48:12;;;;;;;60.17;48.50;;;12.10;99.90;;;;;;5011138;28;20536;-84
2023/04/12 03:50:47;;;;;;;56.67;51.58;;;9.50;99.90;;;;;;5004176;28;20391;-84
2023/04/12 03:53:13;;;;;;;64.15;47.95;;;11.90;99.90;;;;;;4995969;28;20042;-84
2023/04/12 03:55:39;;;;;;;76.45;65.28;;;11.30;99.90;;;;;;4984413;28;20033;-84
2023/04/12 03:58:05;;;;;;;75.78;63.50;;;10.20;99.90;;;;;;5011662;28;20057;-84
2023/04/12 04:00:31;;;;;;;62.80;53.17;;;9.40;99.90;;;;;;5014421;28;20489;-84
2023/04/12 04:02:57;;;;;;;51.20;44.38;;;10.10;99.90;;;;;;5011861;28;20046;-83
2023/04/12 04:05:23;;;;;;;60.83;50.08;;;10.10;99.90;;;;;;4993765;28;20085;-84
2023/04/12 04:07:50;;;;;;;55.03;49.20;;;9.50;99.90;;;;;;5009551;28;20080;-83
2023/04/12 04:10:15;;;;;;;77.75;68.60;;;10.00;99.90;;;;;;4994880;28;20092;-84
2023/04/12 04:12:41;;;;;;;33.13;30.27;;;10.50;99.90;;;;;;4993979;28;20046;-84
2023/04/12 04:15:07;;;;;;;42.85;38.15;;;10.20;99.90;;;;;;5011346;28;20042;-84
2023/04/12 04:17:32;;;;;;;70.88;54.90;;;9.40;99.90;;;;;;4993465;28;20041;-84
2023/04/12 04:19:58;;;;;;;47.40;42.30;;;9.70;99.90;;;;;;4992749;28;20054;-84
2023/04/12 04:22:24;;;;;;;61.30;53.22;;;9.90;99.90;;;;;;4990312;28;20038;-84
2023/04/12 04:24:50;;;;;;;66.53;59.42;;;11.00;99.90;;;;;;4989092;28;20936;-84
2023/04/12 04:27:16;;;;;;;54.30;43.78;;;11.20;99.90;;;;;;4998061;28;20429;-84
2023/04/12 04:29:44;;;;;;;132.57;96.63;;;9.80;99.90;;;;;;5010724;28;20049;-84
2023/04/12 04:32:11;;;;;;;85.30;57.65;;;9.30;99.90;;;;;;4994296;28;20155;-84
2023/04/12 04:34:37;;;;;;;60.70;54.42;;;10.10;99.90;;;;;;4999333;28;20574;-84
2023/04/12 04:37:02;;;;;;;85.85;71.57;;;10.10;99.90;;;;;;4996644;28;20078;-84
2023/04/12 04:39:28;;;;;;;59.50;48.45;;;10.00;99.90;;;;;;4984747;28;20142;-84
2023/04/12 04:41:53;;;;;;;49.35;43.38;;;9.90;99.90;;;;;;4998998;28;20046;-85
2023/04/12 04:44:20;;;;;;;68.30;57.10;;;11.50;99.90;;;;;;5010590;28;20041;-85
2023/04/12 04:46:47;;;;;;;61.90;50.95;;;9.40;99.90;;;;;;5001642;28;20058;-84
2023/04/12 04:49:13;;;;;;;81.10;60.00;;;9.60;99.90;;;;;;4987988;28;20045;-84
2023/04/12 04:51:38;;;;;;;46.85;40.00;;;9.80;99.90;;;;;;4987645;28;20128;-85
2023/04/12 04:54:04;;;;;;;88.20;66.88;;;9.80;99.90;;;;;;5011186;28;20045;-84
2023/04/12 04:56:31;;;;;;;62.00;55.20;;;10.00;99.90;;;;;;4999072;28;20057;-84
2023/04/12 04:58:57;;;;;;;39.13;35.15;;;10.00;99.90;;;;;;5003056;28;20333;-85
2023/04/12 05:01:26;;;;;;;47.00;42.13;;;9.60;99.90;;;;;;5008549;28;20045;-85
2023/04/12 05:03:54;;;;;;;50.45;45.00;;;10.10;99.90;;;;;;5009336;28;20041;-85
2023/04/12 05:06:19;;;;;;;36.28;32.17;;;10.20;99.90;;;;;;4992661;28;20042;-85
2023/04/12 05:08:45;;;;;;;69.30;57.10;;;9.50;99.90;;;;;;4987440;28;20044;-85
2023/04/12 05:11:11;;;;;;;32.35;29.30;;;10.20;99.90;;;;;;5003700;28;20060;-84
2023/04/12 05:13:36;;;;;;;48.20;42.95;;;10.00;99.90;;;;;;4981633;28;20121;-85
2023/04/12 05:16:07;;;;;;;48.75;37.70;;;9.70;99.90;;;;;;5002025;28;20129;-84
2023/04/12 05:18:33;;;;;;;40.67;37.25;;;10.10;99.90;;;;;;5003912;28;20029;-85
2023/04/12 05:21:02;;;;;;;39.83;32.00;;;9.70;99.90;;;;;;4990015;28;20107;-85
2023/04/12 05:23:28;;;;;;;36.05;22.52;;;9.80;99.90;;;;;;5008227;28;20468;-85
2023/04/12 05:25:54;;;;;;;59.67;43.03;;;11.40;99.90;;;;;;5002460;28;20129;-84
2023/04/12 05:28:20;;;;;;;37.30;33.78;;;9.80;99.90;;;;;;4985178;28;20072;-85
2023/04/12 05:30:45;;;;;;;59.10;40.33;;;10.30;99.90;;;;;;4989007;28;20078;-85
2023/04/12 05:33:11;;;;;;;68.15;51.30;;;10.20;99.90;;;;;;4983589;28;20108;-85
2023/04/12 05:35:37;;;;;;;59.47;52.30;;;9.70;99.90;;;;;;4989677;28;20044;-85
2023/04/12 05:38:02;;;;;;;33.58;29.23;;;10.10;99.90;;;;;;4993030;28;20472;-85
2023/04/12 05:40:30;;;;;;;36.78;32.88;;;9.70;99.90;;;;;;4998499;28;20062;-85
2023/04/12 05:42:56;;;;;;;24.40;22.02;;;9.60;99.90;;;;;;4996865;28;20060;-85
2023/04/12 05:45:22;;;;;;;60.90;51.88;;;10.30;99.90;;;;;;5004461;28;20058;-85
2023/04/12 05:47:47;;;;;;;35.83;32.20;;;10.10;99.90;;;;;;4978582;28;20049;-85
2023/04/12 05:50:13;;;;;;;69.53;53.33;;;10.10;99.90;;;;;;4986561;28;20572;-85
2023/04/12 05:52:39;;;;;;;48.60;42.05;;;10.10;99.90;;;;;;4982419;28;20172;-85
2023/04/12 05:55:05;;;;;;;56.35;43.47;;;9.90;99.90;;;;;;5006443;28;20038;-85
2023/04/12 05:57:31;;;;;;;55.83;44.55;;;9.90;99.90;;;;;;4985443;28;20045;-85
2023/04/12 05:59:56;;;;;;;60.97;48.95;;;12.00;99.90;;;;;;4991224;28;20041;-85
2023/04/12 06:02:24;;;;;;;61.47;48.38;;;9.60;99.90;;;;;;4983182;28;20125;-85
2023/04/12 06:04:51;;;;;;;88.38;75.07;;;10.30;99.90;;;;;;5005744;28;20057;-85
2023/04/12 06:07:18;;;;;;;74.00;62.65;;;10.20;99.90;;;;;;4989479;28;20646;-85
2023/04/12 06:09:43;;;;;;;61.83;54.90;;;9.90;99.90;;;;;;4982067;28;20042;-85
2023/04/12 06:12:09;;;;;;;51.25;46.08;;;11.40;99.90;;;;;;4979165;28;20065;-85
2023/04/12 06:14:35;;;;;;;56.60;50.53;;;10.30;99.90;;;;;;4992634;28;20058;-84
2023/04/12 06:17:00;;;;;;;63.17;52.97;;;11.30;99.90;;;;;;5005721;28;20030;-85
2023/04/12 06:19:26;;;;;;;60.22;53.65;;;10.10;99.90;;;;;;4982716;28;20046;-85
2023/04/12 06:21:51;;;;;;;91.30;77.15;;;10.60;99.90;;;;;;4981074;28;20422;-84
2023/04/12 06:24:17;;;;;;;34.72;31.75;;;9.10;99.90;;;;;;4979326;28;20121;-84
2023/04/12 06:26:45;;;;;;;57.55;49.90;;;10.10;99.90;;;;;;5002233;28;20457;-84
2023/04/12 06:29:11;;;;;;;87.30;63.40;;;10.40;99.90;;;;;;5002195;28;20082;-83
2023/04/12 06:31:37;;;;;;;48.97;43.83;;;10.30;99.90;;;;;;4999077;28;20478;-84
2023/04/12 06:34:02;;;;;;;47.42;38.90;;;10.30;99.90;;;;;;4990088;28;20088;-84
2023/04/12 06:36:28;;;;;;;60.45;53.83;;;10.50;99.90;;;;;;4971321;28;20100;-84
2023/04/12 06:38:54;;;;;;;57.90;51.70;;;10.40;99.90;;;;;;4979226;28;20454;-84
2023/04/12 06:41:20;;;;;;;34.17;30.75;;;10.50;99.90;;;;;;5008551;28;20042;-84
2023/04/12 06:43:46;;;;;;;48.30;41.85;;;10.40;99.90;;;;;;4977133;28;20431;-84
2023/04/12 06:46:14;;;;;;;66.93;54.55;;;10.40;99.90;;;;;;4972366;28;20042;-84
2023/04/12 06:48:40;;;;;;;58.15;46.55;;;12.30;99.90;;;;;;4992965;28;20038;-84
2023/04/12 06:51:06;;;;;;;38.92;34.63;;;10.40;99.90;;;;;;5001247;28;20120;-84
2023/04/12 06:53:33;;;;;;;50.20;45.17;;;10.70;99.90;;;;;;4992003;28;20060;-85
2023/04/12 06:56:03;;;;;;;59.53;48.20;;;10.50;99.90;;;;;;4996196;28;20038;-84
2023/04/12 06:58:29;;;;;;;53.92;46.95;;;10.70;99.90;;;;;;5008317;28;20745;-85
2023/04/12 07:01:04;;;;;;;65.07;53.50;;;10.60;99.90;;;;;;4991548;28;20521;-84
2023/04/12 07:03:32;;;;;;;33.88;30.35;;;10.60;99.90;;;;;;4993699;28;20078;-83
2023/04/12 07:06:04;;;;;;;37.63;33.47;;;10.60;99.90;;;;;;5009859;28;20188;-84
2023/04/12 07:08:32;;;;;;;33.03;29.48;;;10.60;99.90;;;;;;4995397;28;20033;-83
2023/04/12 07:10:57;;;;;;;31.67;28.38;;;10.70;99.90;;;;;;5010569;28;20080;-84
2023/04/12 07:13:23;;;;;;;33.22;29.83;;;10.80;99.90;;;;;;4989233;28;20046;-83
2023/04/12 07:15:53;;;;;;;18.23;16.58;;;10.80;99.90;;;;;;4994985;28;20045;-83
2023/04/12 07:18:19;;;;;;;30.52;27.50;;;11.00;99.90;;;;;;4995125;28;20441;-83
2023/04/12 07:20:49;;;;;;;23.63;21.30;;;10.70;99.90;;;;;;4977829;28;20042;-83
2023/04/12 07:23:15;;;;;;;25.08;19.88;;;10.90;99.90;;;;;;5002510;28;20396;-83
2023/04/12 07:25:41;;;;;;;27.08;24.45;;;12.10;99.90;;;;;;4994187;28;20065;-83
2023/04/12 07:28:06;;;;;;;39.80;36.05;;;10.80;99.90;;;;;;4989321;28;20108;-84
2023/04/12 07:30:32;;;;;;;50.60;41.35;;;10.90;99.90;;;;;;4998979;28;20057;-85
2023/04/12 07:32:59;;;;;;;51.63;46.47;;;11.20;99.90;;;;;;4984138;28;20137;-84
2023/04/12 07:35:25;;;;;;;78.30;63.53;;;11.30;99.90;;;;;;4993414;28;20445;-84
2023/04/12 07:37:52;;;;;;;52.75;47.10;;;11.30;99.90;;;;;;5000923;28;20565;-84
2023/04/12 07:40:18;;;;;;;51.70;46.60;;;12.70;99.90;;;;;;4993741;28;20084;-84
2023/04/12 07:42:43;;;;;;;54.40;48.05;;;11.20;99.90;;;;;;5011868;28;20050;-83
2023/04/12 07:45:09;;;;;;;62.95;46.50;;;11.10;99.90;;;;;;4995638;28;20057;-84
2023/04/12 07:47:35;;;;;;;48.95;43.88;;;11.20;99.90;;;;;;4994698;28;20034;-83
2023/04/12 07:50:01;;;;;;;50.67;45.22;;;11.20;99.90;;;;;;4993859;28;20084;-84
2023/04/12 07:52:26;;;;;;;51.50;35.92;;;11.30;99.90;;;;;;4989979;28;20125;-83
2023/04/12 07:54:53;;;;;;;73.57;51.90;;;11.40;99.90;;;;;;4998387;28;20034;-83
2023/04/12 07:57:19;;;;;;;75.47;49.90;;;11.50;99.90;;;;;;5010978;28;20096;-83
2023/04/12 07:59:44;;;;;;;63.25;53.10;;;11.40;99.90;;;;;;5009485;28;20046;-84
2023/04/12 08:02:10;;;;;;;58.25;44.47;;;11.40;99.90;;;;;;5004624;28;20394;-83
2023/04/12 08:04:37;;;;;;;78.68;49.50;;;11.60;99.90;;;;;;4993409;28;20088;-83
2023/04/12 08:07:02;;;;;;;74.05;47.03;;;11.70;99.90;;;;;;4996800;28;20069;-82
2023/04/12 08:09:29;;;;;;;91.78;57.53;;;13.60;99.90;;;;;;4993978;28;20049;-83
2023/04/12 08:11:55;;;;;;;53.20;39.10;;;12.70;99.90;;;;;;4990063;28;20154;-83
2023/04/12 08:14:21;;;;;;;51.67;29.30;;;11.90;99.90;;;;;;4996730;28;20493;-83
2023/04/12 08:16:47;;;;;;;78.07;49.80;;;12.00;99.90;;;;;;4974793;28;20303;-83
2023/04/12 08:19:13;;;;;;;60.22;35.45;;;12.00;99.90;;;;;;4983575;28;20413;-82
2023/04/12 08:21:39;;;;;;;89.97;56.38;;;12.00;99.90;;;;;;5009172;28;20054;-82
2023/04/12 08:24:05;;;;;;;60.65;35.38;;;12.50;99.90;;;;;;4991089;28;20052;-83
2023/04/12 08:26:30;;;;;;;58.45;36.97;;;11.90;99.90;;;;;;4982681;28;20128;-82
2023/04/12 08:28:57;;;;;;;85.03;50.85;;;11.80;99.90;;;;;;4992933;28;20033;-82
2023/04/12 08:31:23;;;;;;;36.42;12.07;;;13.80;99.90;;;;;;5006108;28;20469;-82
2023/04/12 08:33:48;;;;;;;75.07;49.00;;;11.80;99.90;;;;;;4990871;28;20134;-83
2023/04/12 08:36:14;;;;;;;66.63;38.60;;;12.00;99.90;;;;;;4992332;28;20034;-84
2023/04/12 08:38:40;;;;;;;77.85;53.67;;;12.00;99.90;;;;;;4983281;28;20057;-83
2023/04/12 08:41:06;;;;;;;50.35;33.97;;;11.90;99.90;;;;;;4998379;28;20054;-83
2023/04/12 08:43:33;;;;;;;48.75;25.70;;;12.20;99.90;;;;;;4990963;28;20077;-82
2023/04/12 08:45:59;;;;;;;50.95;27.92;;;12.50;99.90;;;;;;4988824;28;20664;-82
2023/04/12 08:48:26;;;;;;;52.22;32.33;;;14.80;99.90;;;;;;4990770;28;20517;-82
2023/04/12 08:50:53;;;;;;;32.72;11.05;;;14.70;99.90;;;;;;5007925;28;20426;-83
2023/04/12 08:53:19;;;;;;;31.65;11.00;;;13.70;99.90;;;;;;4993835;28;20044;-82
2023/04/12 08:55:44;;;;;;;32.83;8.63;;;14.50;99.90;;;;;;5009122;28;20045;-83
2023/04/12 08:58:14;;;;;;;25.77;7.78;;;12.30;99.90;;;;;;5009775;28;20064;-82
2023/04/12 09:00:40;;;;;;;40.47;25.17;;;12.10;99.90;;;;;;4997408;28;20041;-82
2023/04/12 09:03:06;;;;;;;29.67;12.23;;;12.10;99.90;;;;;;5002881;28;20039;-83
2023/04/12 09:05:32;;;;;;;32.40;14.82;;;12.20;99.90;;;;;;4991186;28;20048;-83
2023/04/12 09:07:58;;;;;;;30.63;11.18;;;14.20;99.90;;;;;;4977945;28;20125;-82
2023/04/12 09:10:37;;;;;;;37.33;20.13;;;12.80;99.90;;;;;;4976137;28;20142;-83
2023/04/12 09:13:03;;;;;;;20.45;5.30;;;13.30;99.90;;;;;;4991363;28;20073;-82
2023/04/12 09:15:29;;;;;;;38.05;21.42;;;14.80;99.90;;;;;;4980301;28;20120;-82
2023/04/12 09:18:09;;;;;;;25.67;5.63;;;13.20;99.90;;;;;;5004237;28;20046;-82
2023/04/12 09:20:36;;;;;;;27.40;8.35;;;13.20;99.90;;;;;;5008769;28;20052;-83
2023/04/12 09:23:20;;;;;;;35.22;13.00;;;13.50;99.90;;;;;;4992202;28;20038;-82
2023/04/12 09:25:51;;;;;;;21.13;10.15;;;13.70;99.90;;;;;;4978967;28;20050;-83
2023/04/12 09:28:28;;;;;;;26.35;5.38;;;13.50;99.90;;;;;;4989966;28;20572;-83
2023/04/12 09:30:56;;;;;;;21.90;7.65;;;15.00;99.90;;;;;;4973486;28;20054;-83
2023/04/12 09:33:34;;;;;;;16.40;4.75;;;15.00;99.90;;;;;;4983290;28;20035;-83
2023/04/12 09:36:01;;;;;;;24.00;6.43;;;13.70;99.90;;;;;;4989136;28;20041;-82
2023/04/12 09:38:28;;;;;;;21.52;4.85;;;13.40;99.90;;;;;;4991994;28;20116;-82
2023/04/12 09:40:54;;;;;;;23.60;9.95;;;13.40;99.90;;;;;;4993197;28;20106;-83
2023/04/12 09:43:36;;;;;;;25.50;13.88;;;14.40;99.90;;;;;;5009312;28;20069;-84
2023/04/12 09:46:12;;;;;;;26.65;15.52;;;13.90;99.90;;;;;;4977190;28;20042;-82
2023/04/12 09:48:49;;;;;;;28.33;19.48;;;13.80;99.90;;;;;;5006261;28;20064;-82
2023/04/12 09:51:31;;;;;;;21.60;7.20;;;14.00;99.90;;;;;;4990915;28;20050;-83
2023/04/12 09:53:59;;;;;;;25.95;17.88;;;13.90;99.90;;;;;;4990118;28;20041;-83
2023/04/12 09:56:28;;;;;;;22.00;8.10;;;14.30;99.90;;;;;;4992883;28;20104;-84
2023/04/12 09:58:55;;;;;;;21.45;5.13;;;13.90;99.90;;;;;;4992476;28;20129;-82
2023/04/12 10:01:23;;;;;;;28.98;17.08;;;15.70;99.90;;;;;;5004032;28;20501;-83
2023/04/12 10:03:49;;;;;;;27.52;13.85;;;13.40;99.90;;;;;;5008084;28;20056;-82
2023/04/12 10:06:17;;;;;;;29.58;15.57;;;13.60;99.90;;;;;;4973075;28;20042;-82
2023/04/12 10:08:43;;;;;;;19.48;7.30;;;13.70;99.90;;;;;;4984656;28;20509;-82
2023/04/12 10:11:09;;;;;;;21.15;9.75;;;15.40;99.90;;;;;;4992107;28;20449;-83
2023/04/12 10:13:36;;;;;;;20.00;9.18;;;13.80;99.90;;;;;;4992074;28;20042;-83
2023/04/12 10:16:05;;;;;;;24.95;8.50;;;13.80;99.90;;;;;;4996755;28;20042;-82
2023/04/12 10:18:34;;;;;;;32.05;16.83;;;13.80;99.90;;;;;;4984893;28;20080;-82
2023/04/12 10:21:00;;;;;;;34.78;12.57;;;15.30;99.90;;;;;;4984717;28;20056;-82
2023/04/12 10:23:26;;;;;;;25.13;9.55;;;13.60;99.90;;;;;;4986393;28;20081;-82
2023/04/12 10:25:52;;;;;;;30.77;19.63;;;13.50;99.90;;;;;;4988381;28;20034;-82
2023/04/12 10:28:21;;;;;;;23.40;5.22;;;13.70;99.90;;;;;;4994350;28;20034;-82
2023/04/12 10:30:49;;;;;;;40.05;32.00;;;13.70;99.90;;;;;;5006886;28;20041;-82
2023/04/12 10:33:17;;;;;;;33.17;12.57;;;13.70;99.90;;;;;;4991767;28;20386;-83
2023/04/12 10:35:49;;;;;;;33.22;8.60;;;14.00;99.90;;;;;;4989453;28;20573;-83
2023/04/12 10:38:15;;;;;;;28.25;6.68;;;14.00;99.90;;;;;;4995041;28;20054;-83
2023/04/12 10:41:11;;;;;;;33.35;22.02;;;15.90;99.90;;;;;;4990403;28;20072;-82
2023/04/12 10:43:37;;;;;;;27.58;8.15;;;14.30;99.90;;;;;;5007435;28;20044;-81
2023/04/12 10:46:04;;;;;;;32.22;19.10;;;14.40;99.90;;;;;;4993281;28;20038;-83
2023/04/12 10:48:35;;;;;;;33.75;16.80;;;14.40;99.90;;;;;;4986115;28;20571;-83
2023/04/12 10:51:29;;;;;;;43.53;38.92;;;15.60;99.90;;;;;;5000265;28;20045;-83
2023/04/12 10:54:07;;;;;;;29.48;11.82;;;14.10;99.90;;;;;;4989975;28;20510;-83
2023/04/12 10:56:41;;;;;;;20.65;7.80;;;15.60;99.90;;;;;;4973042;28;20535;-83
2023/04/12 10:59:08;;;;;;;28.88;9.82;;;14.60;99.90;;;;;;4980927;28;20097;-85
2023/04/12 11:01:34;;;;;;;23.10;10.68;;;16.30;99.90;;;;;;4981224;28;20441;-83
2023/04/12 11:04:12;;;;;;;36.83;18.73;;;14.90;99.90;;;;;;5007234;28;20168;-84
2023/04/12 11:06:52;;;;;;;26.23;13.85;;;15.10;99.90;;;;;;4990551;28;20048;-84
2023/04/12 11:09:24;;;;;;;20.50;5.38;;;15.40;99.90;;;;;;4989060;28;20124;-83
2023/04/12 11:12:03;;;;;;;20.58;5.47;;;15.50;99.90;;;;;;4992063;28;20042;-83
2023/04/12 11:14:41;;;;;;;31.95;13.85;;;15.90;99.90;;;;;;5008121;28;20129;-83
2023/04/12 11:17:07;;;;;;;19.15;7.03;;;16.00;99.90;;;;;;4975111;28;20137;-83
2023/04/12 11:19:38;;;;;;;23.83;9.38;;;16.40;99.90;;;;;;5001308;28;20141;-82
2023/04/12 11:22:05;;;;;;;29.63;12.00;;;15.50;99.90;;;;;;5006852;28;20050;-83
2023/04/12 11:24:31;;;;;;;22.73;11.35;;;16.60;99.90;;;;;;4991315;28;20073;-83
2023/04/12 11:26:58;;;;;;;20.98;14.93;;;16.50;99.90;;;;;;5008038;28;20270;-83
2023/04/12 11:29:24;;;;;;;23.02;16.58;;;17.10;99.90;;;;;;4991000;28;20038;-83
2023/04/12 11:31:49;;;;;;;25.63;7.05;;;15.40;99.90;;;;;;4978020;28;20549;-83
2023/04/12 11:34:19;;;;;;;15.85;7.22;;;15.30;99.90;;;;;;5000942;28;20062;-83
2023/04/12 11:36:46;;;;;;;34.58;21.05;;;17.40;99.90;;;;;;5006494;28;20080;-83
2023/04/12 11:39:13;;;;;;;21.90;6.40;;;15.60;99.90;;;;;;4991999;28;20056;-84
2023/04/12 11:41:46;;;;;;;25.70;5.35;;;16.20;99.90;;;;;;5011646;28;20136;-84
2023/04/12 11:44:13;;;;;;;22.73;10.40;;;16.60;99.90;;;;;;5011107;28;20045;-84
2023/04/12 11:46:39;;;;;;;25.92;8.38;;;15.70;99.90;;;;;;4987064;28;20060;-84
2023/04/12 11:49:05;;;;;;;16.95;8.80;;;15.50;99.90;;;;;;4987944;28;20034;-84
2023/04/12 11:51:32;;;;;;;21.33;6.90;;;15.50;99.90;;;;;;5009687;28;20038;-84
2023/04/12 11:53:58;;;;;;;22.40;7.97;;;15.60;99.90;;;;;;5011177;28;20050;-84
2023/04/12 11:56:24;;;;;;;27.02;19.75;;;15.90;99.90;;;;;;4995041;28;20038;-84
2023/04/12 11:58:50;;;;;;;22.60;7.78;;;16.90;99.90;;;;;;5006806;28;20418;-85
2023/04/12 12:01:17;;;;;;;21.58;11.82;;;16.90;99.90;;;;;;4990713;28;20042;-85
2023/04/12 12:03:43;;;;;;;24.05;18.15;;;15.80;99.90;;;;;;5001221;28;20038;-84
2023/04/12 12:06:09;;;;;;;22.52;12.77;;;15.90;99.90;;;;;;4988521;28;20037;-83
2023/04/12 12:08:35;;;;;;;21.48;8.25;;;17.00;99.90;;;;;;4990583;28;20049;-83
2023/04/12 12:11:01;;;;;;;21.35;9.25;;;17.50;99.90;;;;;;5011219;28;20042;-83
2023/04/12 12:13:26;;;;;;;17.27;10.32;;;16.50;99.90;;;;;;5010996;28;20148;-84
2023/04/12 12:15:52;;;;;;;24.08;13.32;;;17.50;99.90;;;;;;5010337;28;20029;-84
2023/04/12 12:18:18;;;;;;;24.10;18.95;;;15.90;99.90;;;;;;4990914;28;20041;-84
2023/04/12 12:20:49;;;;;;;27.73;11.63;;;15.60;99.90;;;;;;5009731;28;20045;-85
2023/04/12 12:23:31;;;;;;;21.00;9.15;;;16.20;99.90;;;;;;4994592;28;20042;-84
2023/04/12 12:26:02;;;;;;;23.00;7.40;;;15.60;99.90;;;;;;4993916;28;20061;-86
2023/04/12 12:28:28;;;;;;;21.20;10.55;;;17.20;99.90;;;;;;5010076;28;20124;-86
2023/04/12 12:30:56;;;;;;;18.45;12.55;;;17.00;99.90;;;;;;4988792;28;20049;-85
2023/04/12 12:33:22;;;;;;;17.77;6.85;;;16.50;99.90;;;;;;4999397;28;20033;-84